createdAt,value
2018-12-04T00:00:10.019Z,5.45
2018-12-04T00:00:22.449Z,5.45
2018-12-04T00:00:34.843Z,5.45
2018-12-04T00:00:47.240Z,5.45
2018-12-04T00:00:59.649Z,5.45
2018-12-04T00:01:12.591Z,5.45
2018-12-04T00:01:24.953Z,5.45
2018-12-04T00:01:37.325Z,5.45
2018-12-04T00:01:49.698Z,5.45
2018-12-04T00:02:02.090Z,5.45
2018-12-04T00:02:14.784Z,5.45
2018-12-04T00:02:27.173Z,5.45
2018-12-04T00:02:39.550Z,5.45
2018-12-04T00:02:51.957Z,5.45
2018-12-04T00:03:04.326Z,5.45
2018-12-04T00:03:16.702Z,5.45
2018-12-04T00:03:29.086Z,5.45
2018-12-04T00:03:41.461Z,5.45
2018-12-04T00:03:53.839Z,5.45
2018-12-04T00:04:06.243Z,5.45
2018-12-04T00:04:18.612Z,5.45
2018-12-04T00:04:31.007Z,5.45
2018-12-04T00:04:43.372Z,5.45
2018-12-04T00:04:55.759Z,5.45
2018-12-04T00:05:08.128Z,5.45
2018-12-04T00:05:20.497Z,5.45
2018-12-04T00:05:32.871Z,5.45
2018-12-04T00:05:45.287Z,5.45
2018-12-04T00:05:57.673Z,5.45
2018-12-04T00:06:10.078Z,5.45
2018-12-04T00:06:22.518Z,5.45
2018-12-04T00:06:34.889Z,5.45
2018-12-04T00:06:47.257Z,5.45
2018-12-04T00:06:59.638Z,8.75
2018-12-04T00:07:12.051Z,8.75
2018-12-04T00:07:24.460Z,8.75
2018-12-04T00:07:36.820Z,8.75
2018-12-04T00:07:49.196Z,8.75
2018-12-04T00:08:01.573Z,8.75
2018-12-04T00:08:13.943Z,8.75
2018-12-04T00:08:26.330Z,8.75
2018-12-04T00:08:38.715Z,8.75
2018-12-04T00:08:51.096Z,8.75
2018-12-04T00:09:03.469Z,8.75
2018-12-04T00:09:15.863Z,8.75
2018-12-04T00:09:28.252Z,8.75
2018-12-04T00:09:40.607Z,8.75
2018-12-04T00:09:53.002Z,8.75
2018-12-04T00:10:05.420Z,8.75
2018-12-04T00:10:17.862Z,8.75
2018-12-04T00:10:30.249Z,8.75
2018-12-04T00:10:42.638Z,8.75
2018-12-04T00:10:55.005Z,8.75
2018-12-04T00:11:07.395Z,8.75
2018-12-04T00:11:19.755Z,8.75
2018-12-04T00:11:32.156Z,8.75
2018-12-04T00:11:44.702Z,8.75
2018-12-04T00:11:57.081Z,8.75
2018-12-04T00:12:09.438Z,8.75
2018-12-04T00:12:21.818Z,8.75
2018-12-04T00:12:34.252Z,8.75
2018-12-04T00:12:46.635Z,8.75
2018-12-04T00:12:59.040Z,8.75
2018-12-04T00:13:11.471Z,8.75
2018-12-04T00:13:23.850Z,8.75
2018-12-04T00:13:36.219Z,8.75
2018-12-04T00:13:48.612Z,8.75
2018-12-04T00:14:00.979Z,8.75
2018-12-04T00:14:13.380Z,8.75
2018-12-04T00:14:25.735Z,8.75
2018-12-04T00:14:38.117Z,8.75
2018-12-04T00:14:50.706Z,8.75
2018-12-04T00:15:03.160Z,8.75
2018-12-04T00:15:15.543Z,8.75
2018-12-04T00:15:27.911Z,8.75
2018-12-04T00:15:40.294Z,8.75
2018-12-04T00:15:52.668Z,8.75
2018-12-04T00:16:05.060Z,8.75
2018-12-04T00:16:17.440Z,8.75
2018-12-04T00:16:29.833Z,8.75
2018-12-04T00:16:42.887Z,8.75
2018-12-04T00:16:55.268Z,5.25
2018-12-04T00:17:07.645Z,5.25
2018-12-04T00:17:20.044Z,5.25
2018-12-04T00:17:32.436Z,5.25
2018-12-04T00:17:44.840Z,5.25
2018-12-04T00:17:57.392Z,5.25
2018-12-04T00:18:09.780Z,5.25
2018-12-04T00:18:22.136Z,5.25
2018-12-04T00:18:34.496Z,5.25
2018-12-04T00:18:46.878Z,5.25
2018-12-04T00:18:59.279Z,5.25
2018-12-04T00:19:11.679Z,5.25
2018-12-04T00:19:24.096Z,5.25
2018-12-04T00:19:36.630Z,5.25
2018-12-04T00:19:49.208Z,5.25
2018-12-04T00:20:01.576Z,5.25
2018-12-04T00:20:14.016Z,5.25
2018-12-04T00:20:26.408Z,5.25
2018-12-04T00:20:38.788Z,5.25
2018-12-04T00:20:51.170Z,5.25
2018-12-04T00:21:03.557Z,5.25
2018-12-04T00:21:15.930Z,5.25
2018-12-04T00:21:28.315Z,5.25
2018-12-04T00:21:40.739Z,5.25
2018-12-04T00:21:53.121Z,5.25
2018-12-04T00:22:05.509Z,5.25
2018-12-04T00:22:17.909Z,5.25
2018-12-04T00:22:30.292Z,5.25
2018-12-04T00:22:42.659Z,5.25
2018-12-04T00:22:55.065Z,5.25
2018-12-04T00:23:07.450Z,5.25
2018-12-04T00:23:19.841Z,5.25
2018-12-04T00:23:32.222Z,5.25
2018-12-04T00:23:44.771Z,5.25
2018-12-04T00:23:57.129Z,5.25
2018-12-04T00:24:09.669Z,5.25
2018-12-04T00:24:22.049Z,5.25
2018-12-04T00:24:34.433Z,5.25
2018-12-04T00:24:46.803Z,5.25
2018-12-04T00:24:59.171Z,5.25
2018-12-04T00:25:11.537Z,5.25
2018-12-04T00:25:23.919Z,5.25
2018-12-04T00:25:36.325Z,5.25
2018-12-04T00:25:48.716Z,5.25
2018-12-04T00:26:01.115Z,5.25
2018-12-04T00:26:13.610Z,5.25
2018-12-04T00:26:26.139Z,5.25
2018-12-04T00:26:38.494Z,5.25
2018-12-04T00:26:50.866Z,6.68
2018-12-04T00:27:03.334Z,6.68
2018-12-04T00:27:15.718Z,6.68
2018-12-04T00:27:28.079Z,6.68
2018-12-04T00:27:40.505Z,6.68
2018-12-04T00:27:52.888Z,6.68
2018-12-04T00:28:05.509Z,6.68
2018-12-04T00:28:17.887Z,6.68
2018-12-04T00:28:30.295Z,6.68
2018-12-04T00:28:42.689Z,6.68
2018-12-04T00:28:55.067Z,6.68
2018-12-04T00:29:07.453Z,6.68
2018-12-04T00:29:19.914Z,6.68
2018-12-04T00:29:32.278Z,6.68
2018-12-04T00:29:44.838Z,6.68
2018-12-04T00:29:57.217Z,6.68
2018-12-04T00:30:09.589Z,6.68
2018-12-04T00:30:21.979Z,6.68
2018-12-04T00:30:34.431Z,6.68
2018-12-04T00:30:46.895Z,6.68
2018-12-04T00:30:59.276Z,6.68
2018-12-04T00:31:11.660Z,6.68
2018-12-04T00:31:24.067Z,6.68
2018-12-04T00:31:36.447Z,6.68
2018-12-04T00:31:48.810Z,6.68
2018-12-04T00:32:01.175Z,6.68
2018-12-04T00:32:13.576Z,6.68
2018-12-04T00:32:25.938Z,6.68
2018-12-04T00:32:38.323Z,6.68
2018-12-04T00:32:50.693Z,6.68
2018-12-04T00:33:03.057Z,6.68
2018-12-04T00:33:15.524Z,6.68
2018-12-04T00:33:27.973Z,6.68
2018-12-04T00:33:40.349Z,6.68
2018-12-04T00:33:52.746Z,6.68
2018-12-04T00:34:05.246Z,6.68
2018-12-04T00:34:17.629Z,6.68
2018-12-04T00:34:29.986Z,6.68
2018-12-04T00:34:42.352Z,6.68
2018-12-04T00:34:54.728Z,6.68
2018-12-04T00:35:07.131Z,6.68
2018-12-04T00:35:19.485Z,6.68
2018-12-04T00:35:31.861Z,6.68
2018-12-04T00:35:44.235Z,6.68
2018-12-04T00:35:56.600Z,6.68
2018-12-04T00:36:09.218Z,6.68
2018-12-04T00:36:21.602Z,6.68
2018-12-04T00:36:33.978Z,6.68
2018-12-04T00:36:46.379Z,6.68
2018-12-04T00:36:58.733Z,5.3
2018-12-04T00:37:11.120Z,5.3
2018-12-04T00:37:23.513Z,5.3
2018-12-04T00:37:35.893Z,5.3
2018-12-04T00:37:48.259Z,5.3
2018-12-04T00:38:00.679Z,5.3
2018-12-04T00:38:13.027Z,5.3
2018-12-04T00:38:25.424Z,5.3
2018-12-04T00:38:37.815Z,5.3
2018-12-04T00:38:50.208Z,5.3
2018-12-04T00:39:04.028Z,5.3
2018-12-04T00:39:16.417Z,5.3
2018-12-04T00:39:28.805Z,5.3
2018-12-04T00:39:41.191Z,5.3
2018-12-04T00:39:53.587Z,5.3
2018-12-04T00:40:05.966Z,5.3
2018-12-04T00:40:18.337Z,5.3
2018-12-04T00:40:30.720Z,5.3
2018-12-04T00:40:43.130Z,5.3
2018-12-04T00:40:55.493Z,5.3
2018-12-04T00:41:08.136Z,5.3
2018-12-04T00:41:20.525Z,5.3
2018-12-04T00:41:32.911Z,5.3
2018-12-04T00:41:45.287Z,5.3
2018-12-04T00:41:57.670Z,5.3
2018-12-04T00:42:10.029Z,5.3
2018-12-04T00:42:22.411Z,5.3
2018-12-04T00:42:34.786Z,5.3
2018-12-04T00:42:47.143Z,5.3
2018-12-04T00:42:59.552Z,5.3
2018-12-04T00:43:11.960Z,5.3
2018-12-04T00:43:24.329Z,5.3
2018-12-04T00:43:36.711Z,5.3
2018-12-04T00:43:49.214Z,5.3
2018-12-04T00:44:01.576Z,5.3
2018-12-04T00:44:13.975Z,5.3
2018-12-04T00:44:26.375Z,5.3
2018-12-04T00:44:38.751Z,5.3
2018-12-04T00:44:51.149Z,5.3
2018-12-04T00:45:03.534Z,5.3
2018-12-04T00:45:15.924Z,5.3
2018-12-04T00:45:28.293Z,5.3
2018-12-04T00:45:40.669Z,5.3
2018-12-04T00:45:53.036Z,5.3
2018-12-04T00:46:05.424Z,5.3
2018-12-04T00:46:18.014Z,5.3
2018-12-04T00:46:30.403Z,5.3
2018-12-04T00:46:42.775Z,5.3
2018-12-04T00:46:55.310Z,5.45
2018-12-04T00:47:07.684Z,5.45
2018-12-04T00:47:20.067Z,5.45
2018-12-04T00:47:32.451Z,5.45
2018-12-04T00:47:45.176Z,5.45
2018-12-04T00:47:57.598Z,5.45
2018-12-04T00:48:10.001Z,5.45
2018-12-04T00:48:22.363Z,5.45
2018-12-04T00:48:34.773Z,5.45
2018-12-04T00:48:47.155Z,5.45
2018-12-04T00:48:59.553Z,5.45
2018-12-04T00:49:11.928Z,5.45
2018-12-04T00:49:24.301Z,5.45
2018-12-04T00:49:36.676Z,5.45
2018-12-04T00:49:49.073Z,5.45
2018-12-04T00:50:01.588Z,5.45
2018-12-04T00:50:13.999Z,5.45
2018-12-04T00:50:26.511Z,5.45
2018-12-04T00:50:38.917Z,5.45
2018-12-04T00:50:51.285Z,5.45
2018-12-04T00:51:03.691Z,5.45
2018-12-04T00:51:16.136Z,5.45
2018-12-04T00:51:28.497Z,5.45
2018-12-04T00:51:40.854Z,5.45
2018-12-04T00:51:53.263Z,5.45
2018-12-04T00:52:05.675Z,5.45
2018-12-04T00:52:18.038Z,5.45
2018-12-04T00:52:30.396Z,5.45
2018-12-04T00:52:42.792Z,5.45
2018-12-04T00:52:55.209Z,5.45
2018-12-04T00:53:07.603Z,5.45
2018-12-04T00:53:20.003Z,5.45
2018-12-04T00:53:32.378Z,5.45
2018-12-04T00:53:45.269Z,5.45
2018-12-04T00:53:57.644Z,5.45
2018-12-04T00:54:10.019Z,5.45
2018-12-04T00:54:22.422Z,5.45
2018-12-04T00:54:34.808Z,5.45
2018-12-04T00:54:47.400Z,5.45
2018-12-04T00:54:59.779Z,5.45
2018-12-04T00:55:12.167Z,5.45
2018-12-04T00:55:24.550Z,5.45
2018-12-04T00:55:36.937Z,5.45
2018-12-04T00:55:49.343Z,5.45
2018-12-04T00:56:01.787Z,5.45
2018-12-04T00:56:14.200Z,5.45
2018-12-04T00:56:26.599Z,5.45
2018-12-04T00:56:38.970Z,5.45
2018-12-04T00:56:51.382Z,7.7
2018-12-04T00:57:03.756Z,7.7
2018-12-04T00:57:16.147Z,7.7
2018-12-04T00:57:28.519Z,7.7
2018-12-04T00:57:40.968Z,7.7
2018-12-04T00:57:53.335Z,7.7
2018-12-04T00:58:05.730Z,7.7
2018-12-04T00:58:18.141Z,7.7
2018-12-04T00:58:30.527Z,7.7
2018-12-04T00:58:42.888Z,7.7
2018-12-04T00:58:55.271Z,7.7
2018-12-04T00:59:07.637Z,7.7
2018-12-04T00:59:20.058Z,7.7
2018-12-04T00:59:32.505Z,7.7
2018-12-04T00:59:44.882Z,7.7
2018-12-04T00:59:57.331Z,7.7
2018-12-04T01:00:09.723Z,7.7
2018-12-04T01:00:22.099Z,7.7
2018-12-04T01:00:34.473Z,7.7
2018-12-04T01:00:46.866Z,7.7
2018-12-04T01:00:59.254Z,7.7
2018-12-04T01:01:11.663Z,7.7
2018-12-04T01:01:24.064Z,7.7
2018-12-04T01:01:36.440Z,7.7
2018-12-04T01:01:48.846Z,7.7
2018-12-04T01:02:01.217Z,7.7
2018-12-04T01:02:13.600Z,7.7
2018-12-04T01:02:25.946Z,7.7
2018-12-04T01:02:38.328Z,7.7
2018-12-04T01:02:50.700Z,7.7
2018-12-04T01:03:03.105Z,7.7
2018-12-04T01:03:15.479Z,7.7
2018-12-04T01:03:27.900Z,7.7
2018-12-04T01:03:40.277Z,7.7
2018-12-04T01:03:52.673Z,7.7
2018-12-04T01:04:05.097Z,7.7
2018-12-04T01:04:17.490Z,7.7
2018-12-04T01:04:29.869Z,7.7
2018-12-04T01:04:42.273Z,7.7
2018-12-04T01:04:54.630Z,7.7
2018-12-04T01:05:07.018Z,7.7
2018-12-04T01:05:19.387Z,7.7
2018-12-04T01:05:31.757Z,7.7
2018-12-04T01:05:44.145Z,7.7
2018-12-04T01:05:56.538Z,7.7
2018-12-04T01:06:08.917Z,7.7
2018-12-04T01:06:21.309Z,7.7
2018-12-04T01:06:33.672Z,7.7
2018-12-04T01:06:46.047Z,7.7
2018-12-04T01:06:58.412Z,4.62
2018-12-04T01:07:10.804Z,4.62
2018-12-04T01:07:23.171Z,4.62
2018-12-04T01:07:35.551Z,4.62
2018-12-04T01:07:47.926Z,4.62
2018-12-04T01:08:00.320Z,4.62
2018-12-04T01:08:12.679Z,4.62
2018-12-04T01:08:25.071Z,4.62
2018-12-04T01:08:37.470Z,4.62
2018-12-04T01:08:49.847Z,4.62
2018-12-04T01:09:02.236Z,4.62
2018-12-04T01:09:14.615Z,4.62
2018-12-04T01:09:26.989Z,4.62
2018-12-04T01:09:39.394Z,4.62
2018-12-04T01:09:52.188Z,4.62
2018-12-04T01:10:04.585Z,4.62
2018-12-04T01:10:16.961Z,4.62
2018-12-04T01:10:29.348Z,4.62
2018-12-04T01:10:41.739Z,4.62
2018-12-04T01:10:54.160Z,4.62
2018-12-04T01:11:06.530Z,4.62
2018-12-04T01:11:18.907Z,4.62
2018-12-04T01:11:31.283Z,4.62
2018-12-04T01:11:43.667Z,4.62
2018-12-04T01:11:56.043Z,4.62
2018-12-04T01:12:08.439Z,4.62
2018-12-04T01:12:20.830Z,4.62
2018-12-04T01:12:33.252Z,4.62
2018-12-04T01:12:45.653Z,4.62
2018-12-04T01:12:58.042Z,4.62
2018-12-04T01:13:10.423Z,4.62
2018-12-04T01:13:22.810Z,4.62
2018-12-04T01:13:35.202Z,4.62
2018-12-04T01:13:47.591Z,4.62
2018-12-04T01:13:59.962Z,4.62
2018-12-04T01:14:12.359Z,4.62
2018-12-04T01:14:24.729Z,4.62
2018-12-04T01:14:37.103Z,4.62
2018-12-04T01:14:49.605Z,4.62
2018-12-04T01:15:01.997Z,4.62
2018-12-04T01:15:14.373Z,4.62
2018-12-04T01:15:26.843Z,4.62
2018-12-04T01:15:39.227Z,4.62
2018-12-04T01:15:51.621Z,4.62
2018-12-04T01:16:03.992Z,4.62
2018-12-04T01:16:16.391Z,4.62
2018-12-04T01:16:28.798Z,4.62
2018-12-04T01:16:41.182Z,4.62
2018-12-04T01:16:53.572Z,4.2
2018-12-04T01:17:05.961Z,4.2
2018-12-04T01:17:18.467Z,4.2
2018-12-04T01:17:30.834Z,4.2
2018-12-04T01:17:43.228Z,4.2
2018-12-04T01:17:55.619Z,4.2
2018-12-04T01:18:08.025Z,4.2
2018-12-04T01:18:20.424Z,4.2
2018-12-04T01:18:32.834Z,4.2
2018-12-04T01:18:45.207Z,4.2
2018-12-04T01:18:57.593Z,4.2
2018-12-04T01:19:09.982Z,4.2
2018-12-04T01:19:22.360Z,4.2
2018-12-04T01:19:34.746Z,4.2
2018-12-04T01:19:47.139Z,4.2
2018-12-04T01:19:59.515Z,4.2
2018-12-04T01:20:12.080Z,4.2
2018-12-04T01:20:24.554Z,4.2
2018-12-04T01:20:36.947Z,4.2
2018-12-04T01:20:49.329Z,4.2
2018-12-04T01:21:01.717Z,4.2
2018-12-04T01:21:14.099Z,4.2
2018-12-04T01:21:26.473Z,4.2
2018-12-04T01:21:39.016Z,4.2
2018-12-04T01:21:51.644Z,4.2
2018-12-04T01:22:04.601Z,4.2
2018-12-04T01:22:17.040Z,4.2
2018-12-04T01:22:29.465Z,4.2
2018-12-04T01:22:41.865Z,4.2
2018-12-04T01:22:54.273Z,4.2
2018-12-04T01:23:06.700Z,4.2
2018-12-04T01:23:19.086Z,4.2
2018-12-04T01:23:31.488Z,4.2
2018-12-04T01:23:43.905Z,4.2
2018-12-04T01:23:56.470Z,4.2
2018-12-04T01:24:09.012Z,4.2
2018-12-04T01:24:21.439Z,4.2
2018-12-04T01:24:33.855Z,4.2
2018-12-04T01:24:46.304Z,4.2
2018-12-04T01:24:58.685Z,4.2
2018-12-04T01:25:11.114Z,4.2
2018-12-04T01:25:23.520Z,4.2
2018-12-04T01:25:35.900Z,4.2
2018-12-04T01:25:48.262Z,4.2
2018-12-04T01:26:00.656Z,4.2
2018-12-04T01:26:13.142Z,4.2
2018-12-04T01:26:25.709Z,4.2
2018-12-04T01:26:38.068Z,4.2
2018-12-04T01:26:50.467Z,4.2
2018-12-04T01:27:03.049Z,5.35
2018-12-04T01:27:15.425Z,5.35
2018-12-04T01:27:27.798Z,5.35
2018-12-04T01:27:40.183Z,5.35
2018-12-04T01:27:52.561Z,5.35
2018-12-04T01:28:05.238Z,5.35
2018-12-04T01:28:17.620Z,5.35
2018-12-04T01:28:30.018Z,5.35
2018-12-04T01:28:42.401Z,5.35
2018-12-04T01:28:54.757Z,5.35
2018-12-04T01:29:07.115Z,5.35
2018-12-04T01:29:19.504Z,5.35
2018-12-04T01:29:31.883Z,5.35
2018-12-04T01:29:44.487Z,5.35
2018-12-04T01:29:56.861Z,5.35
2018-12-04T01:30:09.254Z,5.35
2018-12-04T01:30:21.626Z,5.35
2018-12-04T01:30:34.176Z,5.35
2018-12-04T01:30:46.723Z,5.35
2018-12-04T01:30:59.106Z,5.35
2018-12-04T01:31:11.468Z,5.35
2018-12-04T01:31:23.835Z,5.35
2018-12-04T01:31:36.215Z,5.35
2018-12-04T01:31:48.610Z,5.35
2018-12-04T01:32:01.023Z,5.35
2018-12-04T01:32:13.425Z,5.35
2018-12-04T01:32:25.825Z,5.35
2018-12-04T01:32:38.227Z,5.35
2018-12-04T01:32:50.634Z,5.35
2018-12-04T01:33:03.074Z,5.35
2018-12-04T01:33:15.519Z,5.35
2018-12-04T01:33:27.946Z,5.35
2018-12-04T01:33:40.319Z,5.35
2018-12-04T01:33:52.757Z,5.35
2018-12-04T01:34:05.277Z,5.35
2018-12-04T01:34:17.703Z,5.35
2018-12-04T01:34:30.076Z,5.35
2018-12-04T01:34:42.461Z,5.35
2018-12-04T01:34:54.909Z,5.35
2018-12-04T01:35:07.346Z,5.35
2018-12-04T01:35:19.742Z,5.35
2018-12-04T01:35:32.125Z,5.35
2018-12-04T01:35:44.509Z,5.35
2018-12-04T01:35:56.925Z,5.35
2018-12-04T01:36:09.451Z,5.35
2018-12-04T01:36:21.835Z,5.35
2018-12-04T01:36:34.228Z,5.35
2018-12-04T01:36:46.606Z,5.35
2018-12-04T01:37:00.170Z,6.13
2018-12-04T01:37:12.561Z,6.13
2018-12-04T01:37:24.945Z,6.13
2018-12-04T01:37:37.383Z,6.13
2018-12-04T01:37:49.771Z,6.13
2018-12-04T01:38:02.145Z,6.13
2018-12-04T01:38:14.504Z,6.13
2018-12-04T01:38:26.880Z,6.13
2018-12-04T01:38:39.266Z,6.13
2018-12-04T01:38:51.668Z,6.13
2018-12-04T01:39:04.081Z,6.13
2018-12-04T01:39:16.473Z,6.13
2018-12-04T01:39:28.885Z,6.13
2018-12-04T01:39:41.274Z,6.13
2018-12-04T01:39:53.663Z,6.13
2018-12-04T01:40:06.050Z,6.13
2018-12-04T01:40:18.429Z,6.13
2018-12-04T01:40:30.842Z,6.13
2018-12-04T01:40:43.238Z,6.13
2018-12-04T01:40:55.619Z,6.13
2018-12-04T01:41:08.281Z,6.13
2018-12-04T01:41:20.677Z,6.13
2018-12-04T01:41:33.049Z,6.13
2018-12-04T01:41:45.436Z,6.13
2018-12-04T01:41:57.801Z,6.13
2018-12-04T01:42:10.174Z,6.13
2018-12-04T01:42:22.581Z,6.13
2018-12-04T01:42:34.979Z,6.13
2018-12-04T01:42:47.351Z,6.13
2018-12-04T01:42:59.748Z,6.13
2018-12-04T01:43:12.122Z,6.13
2018-12-04T01:43:24.521Z,6.13
2018-12-04T01:43:36.899Z,6.13
2018-12-04T01:43:49.509Z,6.13
2018-12-04T01:44:01.894Z,6.13
2018-12-04T01:44:14.272Z,6.13
2018-12-04T01:44:26.691Z,6.13
2018-12-04T01:44:39.071Z,6.13
2018-12-04T01:44:51.433Z,6.13
2018-12-04T01:45:03.823Z,6.13
2018-12-04T01:45:16.242Z,6.13
2018-12-04T01:45:28.634Z,6.13
2018-12-04T01:45:41.042Z,6.13
2018-12-04T01:45:53.434Z,6.13
2018-12-04T01:46:05.842Z,6.13
2018-12-04T01:46:18.356Z,6.13
2018-12-04T01:46:30.731Z,6.13
2018-12-04T01:46:43.120Z,6.13
2018-12-04T01:46:55.493Z,4.38
2018-12-04T01:47:07.889Z,4.38
2018-12-04T01:47:20.259Z,4.38
2018-12-04T01:47:32.687Z,4.38
2018-12-04T01:47:45.212Z,4.38
2018-12-04T01:47:57.787Z,4.38
2018-12-04T01:48:10.155Z,4.38
2018-12-04T01:48:22.521Z,4.38
2018-12-04T01:48:34.909Z,4.38
2018-12-04T01:48:47.305Z,4.38
2018-12-04T01:48:59.727Z,4.38
2018-12-04T01:49:12.501Z,4.38
2018-12-04T01:49:24.992Z,4.38
2018-12-04T01:49:37.371Z,4.38
2018-12-04T01:49:49.757Z,4.38
2018-12-04T01:50:02.292Z,4.38
2018-12-04T01:50:14.680Z,4.38
2018-12-04T01:50:27.094Z,4.38
2018-12-04T01:50:39.459Z,4.38
2018-12-04T01:50:51.869Z,4.38
2018-12-04T01:51:04.241Z,4.38
2018-12-04T01:51:16.607Z,4.38
2018-12-04T01:51:28.985Z,4.38
2018-12-04T01:51:41.366Z,4.38
2018-12-04T01:51:53.824Z,4.38
2018-12-04T01:52:06.204Z,4.38
2018-12-04T01:52:18.584Z,4.38
2018-12-04T01:52:30.961Z,4.38
2018-12-04T01:52:43.348Z,4.38
2018-12-04T01:52:55.726Z,4.38
2018-12-04T01:53:08.155Z,4.38
2018-12-04T01:53:20.535Z,4.38
2018-12-04T01:53:32.910Z,4.38
2018-12-04T01:53:45.278Z,4.38
2018-12-04T01:53:57.660Z,4.38
2018-12-04T01:54:10.162Z,4.38
2018-12-04T01:54:22.552Z,4.38
2018-12-04T01:54:34.916Z,4.38
2018-12-04T01:54:47.448Z,4.38
2018-12-04T01:54:59.856Z,4.38
2018-12-04T01:55:12.231Z,4.38
2018-12-04T01:55:24.613Z,4.38
2018-12-04T01:55:36.996Z,4.38
2018-12-04T01:55:49.390Z,4.38
2018-12-04T01:56:01.792Z,4.38
2018-12-04T01:56:14.182Z,4.38
2018-12-04T01:56:26.555Z,4.38
2018-12-04T01:56:38.921Z,4.38
2018-12-04T01:56:51.322Z,4.38
2018-12-04T01:57:03.681Z,4.92
2018-12-04T01:57:16.049Z,4.92
2018-12-04T01:57:28.424Z,4.92
2018-12-04T01:57:40.805Z,4.92
2018-12-04T01:57:53.203Z,4.92
2018-12-04T01:58:05.572Z,4.92
2018-12-04T01:58:17.949Z,4.92
2018-12-04T01:58:30.340Z,4.92
2018-12-04T01:58:42.723Z,4.92
2018-12-04T01:58:55.112Z,4.92
2018-12-04T01:59:07.488Z,4.92
2018-12-04T01:59:19.860Z,4.92
2018-12-04T01:59:32.246Z,4.92
2018-12-04T01:59:44.657Z,4.92
2018-12-04T01:59:57.014Z,4.92
2018-12-04T02:00:09.391Z,4.92
2018-12-04T02:00:21.783Z,4.92
2018-12-04T02:00:34.185Z,4.92
2018-12-04T02:00:46.619Z,4.92
2018-12-04T02:00:59.006Z,4.92
2018-12-04T02:01:11.423Z,4.92
2018-12-04T02:01:23.857Z,4.92
2018-12-04T02:01:36.264Z,4.92
2018-12-04T02:01:48.639Z,4.92
2018-12-04T02:02:01.001Z,4.92
2018-12-04T02:02:13.411Z,4.92
2018-12-04T02:02:25.820Z,4.92
2018-12-04T02:02:38.193Z,4.92
2018-12-04T02:02:50.571Z,4.92
2018-12-04T02:03:02.954Z,4.92
2018-12-04T02:03:15.325Z,4.92
2018-12-04T02:03:27.710Z,4.92
2018-12-04T02:03:40.082Z,4.92
2018-12-04T02:03:52.737Z,4.92
2018-12-04T02:04:05.154Z,4.92
2018-12-04T02:04:17.529Z,4.92
2018-12-04T02:04:29.895Z,4.92
2018-12-04T02:04:42.326Z,4.92
2018-12-04T02:04:54.714Z,4.92
2018-12-04T02:05:07.114Z,4.92
2018-12-04T02:05:19.499Z,4.92
2018-12-04T02:05:31.878Z,4.92
2018-12-04T02:05:44.253Z,4.92
2018-12-04T02:05:56.623Z,4.92
2018-12-04T02:06:08.992Z,4.92
2018-12-04T02:06:21.543Z,4.92
2018-12-04T02:06:33.897Z,4.92
2018-12-04T02:06:46.298Z,4.92
2018-12-04T02:06:58.684Z,6.48
2018-12-04T02:07:11.054Z,6.48
2018-12-04T02:07:23.475Z,6.48
2018-12-04T02:07:35.857Z,6.48
2018-12-04T02:07:48.263Z,6.48
2018-12-04T02:08:00.632Z,6.48
2018-12-04T02:08:13.017Z,6.48
2018-12-04T02:08:25.404Z,6.48
2018-12-04T02:08:37.775Z,6.48
2018-12-04T02:08:50.152Z,6.48
2018-12-04T02:09:02.535Z,6.48
2018-12-04T02:09:14.917Z,6.48
2018-12-04T02:09:27.282Z,6.48
2018-12-04T02:09:39.663Z,6.48
2018-12-04T02:09:52.028Z,6.48
2018-12-04T02:10:04.509Z,6.48
2018-12-04T02:10:16.889Z,6.48
2018-12-04T02:10:29.253Z,6.48
2018-12-04T02:10:41.646Z,6.48
2018-12-04T02:10:54.020Z,6.48
2018-12-04T02:11:06.400Z,6.48
2018-12-04T02:11:18.788Z,6.48
2018-12-04T02:11:31.203Z,6.48
2018-12-04T02:11:43.599Z,6.48
2018-12-04T02:11:55.976Z,6.48
2018-12-04T02:12:08.351Z,6.48
2018-12-04T02:12:20.710Z,6.48
2018-12-04T02:12:33.119Z,6.48
2018-12-04T02:12:45.477Z,6.48
2018-12-04T02:12:57.836Z,6.48
2018-12-04T02:13:10.319Z,6.48
2018-12-04T02:13:22.694Z,6.48
2018-12-04T02:13:35.059Z,6.48
2018-12-04T02:13:47.417Z,6.48
2018-12-04T02:13:59.787Z,6.48
2018-12-04T02:14:12.168Z,6.48
2018-12-04T02:14:24.540Z,6.48
2018-12-04T02:14:36.929Z,6.48
2018-12-04T02:14:49.416Z,6.48
2018-12-04T02:15:01.808Z,6.48
2018-12-04T02:15:14.210Z,6.48
2018-12-04T02:15:26.631Z,6.48
2018-12-04T02:15:39.031Z,6.48
2018-12-04T02:15:51.411Z,6.48
2018-12-04T02:16:03.833Z,6.48
2018-12-04T02:16:16.211Z,6.48
2018-12-04T02:16:28.588Z,6.48
2018-12-04T02:16:40.970Z,6.48
2018-12-04T02:16:53.363Z,6.48
2018-12-04T02:17:05.756Z,5.56
2018-12-04T02:17:18.131Z,5.56
2018-12-04T02:17:30.563Z,5.56
2018-12-04T02:17:42.948Z,5.56
2018-12-04T02:17:55.320Z,5.56
2018-12-04T02:18:07.716Z,5.56
2018-12-04T02:18:20.071Z,5.56
2018-12-04T02:18:32.439Z,5.56
2018-12-04T02:18:44.803Z,5.56
2018-12-04T02:18:57.172Z,5.56
2018-12-04T02:19:09.544Z,5.56
2018-12-04T02:19:21.919Z,5.56
2018-12-04T02:19:34.306Z,5.56
2018-12-04T02:19:46.756Z,5.56
2018-12-04T02:19:59.124Z,5.56
2018-12-04T02:20:11.651Z,5.56
2018-12-04T02:20:24.032Z,5.56
2018-12-04T02:20:36.385Z,5.56
2018-12-04T02:20:48.745Z,5.56
2018-12-04T02:21:01.233Z,5.56
2018-12-04T02:21:14.385Z,5.56
2018-12-04T02:21:26.838Z,5.56
2018-12-04T02:21:39.239Z,5.56
2018-12-04T02:21:51.614Z,5.56
2018-12-04T02:22:04.010Z,5.56
2018-12-04T02:22:16.699Z,5.56
2018-12-04T02:22:29.105Z,5.56
2018-12-04T02:22:41.519Z,5.56
2018-12-04T02:22:53.896Z,5.56
2018-12-04T02:23:06.283Z,5.56
2018-12-04T02:23:18.644Z,5.56
2018-12-04T02:23:31.048Z,5.56
2018-12-04T02:23:43.414Z,5.56
2018-12-04T02:23:55.901Z,5.56
2018-12-04T02:24:08.451Z,5.56
2018-12-04T02:24:20.811Z,5.56
2018-12-04T02:24:33.169Z,5.56
2018-12-04T02:24:45.526Z,5.56
2018-12-04T02:24:57.947Z,5.56
2018-12-04T02:25:10.337Z,5.56
2018-12-04T02:25:22.870Z,5.56
2018-12-04T02:25:35.230Z,5.56
2018-12-04T02:25:47.598Z,5.56
2018-12-04T02:25:59.987Z,5.56
2018-12-04T02:26:12.466Z,5.56
2018-12-04T02:26:24.822Z,5.56
2018-12-04T02:26:37.324Z,5.56
2018-12-04T02:26:49.702Z,5.56
2018-12-04T02:27:02.149Z,4.6
2018-12-04T02:27:14.541Z,4.6
2018-12-04T02:27:26.928Z,4.6
2018-12-04T02:27:39.304Z,4.6
2018-12-04T02:27:51.678Z,4.6
2018-12-04T02:28:04.140Z,4.6
2018-12-04T02:28:16.892Z,4.6
2018-12-04T02:28:29.302Z,4.6
2018-12-04T02:28:41.745Z,4.6
2018-12-04T02:28:54.145Z,4.6
2018-12-04T02:29:06.507Z,4.6
2018-12-04T02:29:18.885Z,4.6
2018-12-04T02:29:31.234Z,4.6
2018-12-04T02:29:43.777Z,4.6
2018-12-04T02:29:56.134Z,4.6
2018-12-04T02:30:08.593Z,4.6
2018-12-04T02:30:21.033Z,4.6
2018-12-04T02:30:33.601Z,4.6
2018-12-04T02:30:46.176Z,4.6
2018-12-04T02:30:58.594Z,4.6
2018-12-04T02:31:10.968Z,4.6
2018-12-04T02:31:23.418Z,4.6
2018-12-04T02:31:35.810Z,4.6
2018-12-04T02:31:48.237Z,4.6
2018-12-04T02:32:00.671Z,4.6
2018-12-04T02:32:13.098Z,4.6
2018-12-04T02:32:25.495Z,4.6
2018-12-04T02:32:37.989Z,4.6
2018-12-04T02:32:50.401Z,4.6
2018-12-04T02:33:02.780Z,4.6
2018-12-04T02:33:15.161Z,4.6
2018-12-04T02:33:27.590Z,4.6
2018-12-04T02:33:40.021Z,4.6
2018-12-04T02:33:52.441Z,4.6
2018-12-04T02:34:04.950Z,4.6
2018-12-04T02:34:17.350Z,4.6
2018-12-04T02:34:29.770Z,4.6
2018-12-04T02:34:42.313Z,4.6
2018-12-04T02:34:54.689Z,4.6
2018-12-04T02:35:07.103Z,4.6
2018-12-04T02:35:19.505Z,4.6
2018-12-04T02:35:31.902Z,4.6
2018-12-04T02:35:44.301Z,4.6
2018-12-04T02:35:56.675Z,4.6
2018-12-04T02:36:09.218Z,4.6
2018-12-04T02:36:21.724Z,4.6
2018-12-04T02:36:34.126Z,4.6
2018-12-04T02:36:46.512Z,4.6
2018-12-04T02:36:58.933Z,3.87
2018-12-04T02:37:11.368Z,3.87
2018-12-04T02:37:23.832Z,3.87
2018-12-04T02:37:36.230Z,3.87
2018-12-04T02:37:48.663Z,3.87
2018-12-04T02:38:01.090Z,3.87
2018-12-04T02:38:13.477Z,3.87
2018-12-04T02:38:25.866Z,3.87
2018-12-04T02:38:38.273Z,3.87
2018-12-04T02:38:51.911Z,3.87
2018-12-04T02:39:04.293Z,3.87
2018-12-04T02:39:16.686Z,3.87
2018-12-04T02:39:29.117Z,3.87
2018-12-04T02:39:41.531Z,3.87
2018-12-04T02:39:53.907Z,3.87
2018-12-04T02:40:06.314Z,3.87
2018-12-04T02:40:18.765Z,3.87
2018-12-04T02:40:31.233Z,3.87
2018-12-04T02:40:43.661Z,3.87
2018-12-04T02:40:56.063Z,3.87
2018-12-04T02:41:08.923Z,3.87
2018-12-04T02:41:21.340Z,3.87
2018-12-04T02:41:33.747Z,3.87
2018-12-04T02:41:46.198Z,3.87
2018-12-04T02:41:58.586Z,3.87
2018-12-04T02:42:10.973Z,3.87
2018-12-04T02:42:23.410Z,3.87
2018-12-04T02:42:35.823Z,3.87
2018-12-04T02:42:48.248Z,3.87
2018-12-04T02:43:00.670Z,3.87
2018-12-04T02:43:13.097Z,3.87
2018-12-04T02:43:25.501Z,3.87
2018-12-04T02:43:37.922Z,3.87
2018-12-04T02:43:50.539Z,3.87
2018-12-04T02:44:02.944Z,3.87
2018-12-04T02:44:15.327Z,3.87
2018-12-04T02:44:27.713Z,3.87
2018-12-04T02:44:40.072Z,3.87
2018-12-04T02:44:52.484Z,3.87
2018-12-04T02:45:04.910Z,3.87
2018-12-04T02:45:17.319Z,3.87
2018-12-04T02:45:29.727Z,3.87
2018-12-04T02:45:42.130Z,3.87
2018-12-04T02:45:54.519Z,3.87
2018-12-04T02:46:06.901Z,3.87
2018-12-04T02:46:19.401Z,3.87
2018-12-04T02:46:31.787Z,3.87